Time;durP1;ratioP1;P1;durP2;ratioP2;P2;SDS_P1;SDS_P2;PMS_P1;PMS_P2;Temp;Humidity;BMP_temperature;BMP_pressure;BME280_temperature;BME280_humidity;BME280_pressure;Samples;Min_cycle;Max_cycle;Signal;HPM_P1;HPM_P2
2022/06/13 00:01:55;;;;;;;;;;;19.90;72.80;;;19.28;67.55;96306.91;4102417;34;20161;-90
2022/06/13 00:04:24;;;;;;;;;;;19.90;72.70;;;19.26;67.79;96310.00;4080725;34;20119;-89
2022/06/13 00:06:52;;;;;;;;;;;20.00;72.80;;;19.26;67.94;96307.25;4102749;34;19904;-90
2022/06/13 00:09:21;;;;;;;;;;;19.90;72.60;;;19.26;67.83;96304.47;4102654;34;19904;-90
2022/06/13 00:11:51;;;;;;;;;;;20.00;72.70;;;19.26;67.65;96298.91;4080302;34;20169;-90
2022/06/13 00:14:20;;;;;;;;;;;19.90;72.60;;;19.26;67.75;96300.84;4080962;34;19904;-90
2022/06/13 00:16:48;;;;;;;;;;;19.90;72.80;;;19.25;67.51;96305.59;4102368;34;20356;-90
2022/06/13 00:19:17;;;;;;;;;;;20.00;73.50;;;19.25;67.69;96305.59;4102278;34;19911;-90
2022/06/13 00:21:46;;;;;;;;;;;19.90;72.80;;;19.26;67.57;96303.63;4079862;34;19911;-91
2022/06/13 00:24:14;;;;;;;;;;;19.90;72.80;;;19.25;67.78;96304.78;4079733;34;19908;-90
2022/06/13 00:26:43;;;;;;;;;;;20.00;72.80;;;19.25;67.36;96300.06;4102185;34;19971;-90
2022/06/13 00:29:13;;;;;;;;;;;19.90;72.70;;;19.23;67.67;96296.78;4080113;34;19904;-90
2022/06/13 00:31:42;;;;;;;;;;;19.90;72.70;;;19.23;67.41;96302.31;4101755;34;19904;-90
2022/06/13 00:34:11;;;;;;;;;;;19.90;72.60;;;19.22;67.63;96295.13;4080169;34;19920;-90
2022/06/13 00:36:39;;;;;;;;;;;19.90;72.70;;;19.23;67.34;96298.75;4080179;34;19904;-89
2022/06/13 00:39:08;;;;;;;;;;;19.90;72.60;;;19.23;67.44;96302.31;4124430;34;19911;-90
2022/06/13 00:41:38;;;;;;;;;;;19.90;72.60;;;19.23;67.62;96293.19;4101351;34;19917;-89
2022/06/13 00:44:18;;;;;;;;;;;19.90;72.60;;;19.23;67.45;96288.44;4102033;34;20274;-89
2022/06/13 00:46:46;;;;;;;;;;;19.90;72.60;;;19.21;67.43;96290.72;4101982;34;20127;-89
2022/06/13 00:49:18;;;;;;;;;;;19.90;72.70;;;19.23;67.55;96291.22;4101871;34;20001;-89
2022/06/13 00:51:49;;;;;;;;;;;19.90;72.70;;;19.21;67.49;96287.94;4079520;34;19904;-89
2022/06/13 00:54:19;;;;;;;;;;;19.90;72.70;;;19.22;67.93;96289.59;4079984;34;20032;-90
2022/06/13 00:56:49;;;;;;;;;;;19.90;72.70;;;19.22;67.75;96289.59;4079717;34;19904;-89
2022/06/13 00:59:21;;;;;;;;;;;19.90;72.60;;;19.22;67.71;96289.59;4079854;34;20449;-89
2022/06/13 01:01:50;;;;;;;;;;;19.90;72.60;;;19.22;67.66;96284.03;4079450;34;20006;-89
2022/06/13 01:04:18;;;;;;;;;;;19.90;72.60;;;19.19;67.59;96290.22;4101949;34;19904;-90
2022/06/13 01:06:49;;;;;;;;;;;19.90;72.60;;;19.20;67.64;96286.31;4101880;34;19911;-90
2022/06/13 01:11:16;;;;;;;;;;;19.90;72.60;;;19.20;67.45;96286.31;4079607;34;19989;-89
2022/06/13 01:12:08;;;;;;;;;;;19.90;72.60;;;19.19;67.52;96283.88;4079316;34;20119;-90
2022/06/13 01:14:51;;;;;;;;;;;19.90;72.50;;;19.19;67.52;96281.91;4079604;34;20108;-89
2022/06/13 01:17:35;;;;;;;;;;;19.80;72.50;;;19.19;67.37;96283.88;4079852;34;20092;-90
2022/06/13 01:20:40;;;;;;;;;;;19.90;72.60;;;19.19;67.35;96273.59;4079122;34;19904;-90
2022/06/13 01:23:51;;;;;;;;;;;19.90;72.60;;;19.17;67.64;96279.47;4076165;34;19954;-90
2022/06/13 01:26:53;;;;;;;;;;;19.90;72.50;;;19.17;67.54;96273.91;4101715;34;20024;-90
2022/06/13 01:29:59;;;;;;;;;;;19.80;72.40;;;19.18;67.51;96283.03;4101686;34;19916;-90
2022/06/13 01:32:39;;;;;;;;;;;19.80;72.40;;;19.18;67.17;96277.50;4052673;34;20088;-90
2022/06/13 01:35:20;;;;;;;;;;;19.80;72.40;;;19.16;67.62;96272.28;4079803;34;20175;-90
2022/06/13 01:38:00;;;;;;;;;;;19.90;72.50;;;19.15;67.36;96267.06;4079447;34;19904;-90
2022/06/13 01:40:38;;;;;;;;;;;19.80;72.30;;;19.16;67.35;96263.16;4079085;34;20332;-90
2022/06/13 01:43:11;;;;;;;;;;;19.80;72.40;;;19.15;67.35;96262.31;4101400;34;20007;-90
2022/06/13 01:45:44;;;;;;;;;;;19.80;72.40;;;19.15;67.46;96261.53;4101575;34;20123;-90
2022/06/13 01:48:26;;;;;;;;;;;19.80;72.40;;;19.15;67.43;96261.53;4079367;34;19912;-90
2022/06/13 01:50:58;;;;;;;;;;;19.80;72.40;;;19.14;67.25;96260.69;4100920;34;20143;-90
2022/06/13 01:53:35;;;;;;;;;;;19.80;72.40;;;19.14;67.20;96266.22;4100854;34;19923;-89
2022/06/13 01:56:06;;;;;;;;;;;19.80;72.40;;;19.13;67.59;96255.47;4079394;34;19904;-90
2022/06/13 01:58:38;;;;;;;;;;;19.80;72.40;;;19.13;67.31;96253.50;4078874;34;19912;-89
2022/06/13 02:01:09;;;;;;;;;;;19.80;72.30;;;19.14;67.53;96265.44;4100777;34;20344;-89
2022/06/13 02:03:43;;;;;;;;;;;19.80;72.40;;;19.14;67.28;96259.88;4079379;34;20061;-90
2022/06/13 02:06:15;;;;;;;;;;;19.80;72.30;;;19.13;67.08;96255.47;4124482;34;19911;-90
2022/06/13 02:08:47;;;;;;;;;;;19.80;72.30;;;19.13;67.18;96256.28;4079218;34;19977;-89
2022/06/13 02:11:18;;;;;;;;;;;19.80;72.30;;;19.12;67.20;96262.16;4078669;34;19996;-90
2022/06/13 02:13:57;;;;;;;;;;;19.80;72.30;;;19.11;67.03;96266.88;4079091;34;19904;-90
2022/06/13 02:16:30;;;;;;;;;;;19.80;72.30;;;19.11;67.27;96272.44;4079186;34;20015;-90
2022/06/13 02:19:04;;;;;;;;;;;19.80;72.30;;;19.11;67.27;96272.44;4101274;34;20183;-90
2022/06/13 02:21:37;;;;;;;;;;;19.80;72.30;;;19.12;67.47;96262.16;4100723;34;20071;-90
2022/06/13 02:24:09;;;;;;;;;;;19.80;72.20;;;19.11;67.43;96268.84;4101072;34;19967;-89
2022/06/13 02:26:37;;;;;;;;;;;19.80;72.20;;;19.12;67.23;96267.72;4101082;34;20224;-89
2022/06/13 02:29:09;;;;;;;;;;;19.80;72.20;;;19.11;67.41;96274.41;4079117;34;19904;-90
2022/06/13 02:31:40;;;;;;;;;;;19.80;72.20;;;19.10;67.44;96270.81;4078558;34;19904;-89
2022/06/13 02:34:14;;;;;;;;;;;19.80;72.20;;;19.07;67.06;96265.09;4101074;34;19904;-90
2022/06/13 02:36:48;;;;;;;;;;;19.80;72.20;;;19.11;67.33;96277.16;4079030;34;20129;-89
2022/06/13 02:39:20;;;;;;;;;;;19.80;72.20;;;19.10;67.28;96270.00;4078996;34;19904;-89
2022/06/13 02:41:51;;;;;;;;;;;19.80;72.30;;;19.10;67.27;96267.22;4100481;34;19919;-90
2022/06/13 02:44:24;;;;;;;;;;;19.80;72.20;;;19.10;67.43;96270.00;4078498;34;20034;-90
2022/06/13 02:46:55;;;;;;;;;;;19.80;72.20;;;19.10;67.14;96275.53;4100998;34;19911;-90
2022/06/13 02:49:28;;;;;;;;;;;19.80;72.20;;;19.07;67.07;96277.00;4078830;34;19904;-89
2022/06/13 02:52:02;;;;;;;;;;;19.80;72.20;;;19.10;67.24;96275.53;4078338;34;19904;-90
2022/06/13 02:54:35;;;;;;;;;;;19.80;72.20;;;19.07;67.27;96270.63;4078236;34;19904;-89
2022/06/13 02:57:24;;;;;;;;;;;19.80;72.40;;;19.09;67.42;96277.50;4078070;34;19912;-90
2022/06/13 03:00:22;;;;;;;;;;;19.80;72.30;;;19.07;67.45;96271.47;4100849;34;19904;-90
2022/06/13 03:02:58;;;;;;;;;;;19.80;72.30;;;19.06;67.40;96271.78;4123083;34;19953;-90
2022/06/13 03:05:55;;;;;;;;;;;19.80;72.30;;;19.07;67.31;96277.00;4103172;34;20078;-90
2022/06/13 03:08:52;;;;;;;;;;;19.80;72.40;;;19.08;67.42;96272.25;4080929;34;19911;-90
2022/06/13 03:11:37;;;;;;;;;;;19.80;72.20;;;19.08;67.18;96275.03;4086496;34;19904;-90
2022/06/13 03:14:17;;;;;;;;;;;19.80;72.30;;;19.08;67.13;96280.59;4126366;34;20025;-90
2022/06/13 03:16:53;;;;;;;;;;;19.80;72.30;;;19.08;67.42;96280.59;4102839;34;19911;-90
2022/06/13 03:19:24;;;;;;;;;;;19.80;72.40;;;19.05;67.33;96267.34;4080999;34;20163;-90
2022/06/13 03:21:58;;;;;;;;;;;19.80;72.30;;;19.06;67.53;96274.53;4102382;34;19911;-90
2022/06/13 03:24:31;;;;;;;;;;;19.80;72.30;;;19.08;67.28;96272.25;4102746;34;20103;-89
2022/06/13 03:27:05;;;;;;;;;;;19.80;72.40;;;19.07;67.17;96273.41;4080601;34;20026;-90
2022/06/13 03:29:37;;;;;;;;;;;19.80;72.30;;;19.06;67.19;96266.22;4102971;34;19976;-90
2022/06/13 03:32:08;;;;;;;;;;;19.70;72.30;;;19.06;67.13;96269.00;4102454;34;20055;-90
2022/06/13 03:34:40;;;;;;;;;;;19.70;72.30;;;19.07;67.47;96262.31;4102716;34;19919;-90
2022/06/13 03:37:12;;;;;;;;;;;19.80;72.30;;;19.07;67.61;96263.13;4102658;34;19904;-90
2022/06/13 03:39:44;;;;;;;;;;;19.70;72.30;;;19.06;67.46;96258.72;4080787;34;20186;-90
2022/06/13 03:42:16;;;;;;;;;;;19.80;72.30;;;19.08;67.35;96258.41;4102238;34;19946;-89
2022/06/13 03:44:48;;;;;;;;;;;19.80;72.30;;;19.06;67.32;96263.44;4080648;34;19994;-90
2022/06/13 03:47:19;;;;;;;;;;;19.80;72.40;;;19.06;67.42;96267.06;4080779;34;20135;-89
2022/06/13 03:49:51;;;;;;;;;;;19.80;72.40;;;19.07;67.41;96260.38;4102526;34;20034;-90
2022/06/13 03:52:21;;;;;;;;;;;19.80;72.30;;;19.07;67.45;96265.09;4080625;34;20099;-90
2022/06/13 03:54:53;;;;;;;;;;;19.80;72.20;;;19.06;67.03;96266.22;4080552;34;20127;-89
2022/06/13 03:57:23;;;;;;;;;;;19.80;72.20;;;19.06;67.46;96264.28;4102463;34;19904;-90
2022/06/13 03:59:54;;;;;;;;;;;19.80;72.20;;;19.07;67.28;96268.69;4080220;34;19917;-90
2022/06/13 04:02:27;;;;;;;;;;;19.80;72.20;;;19.08;67.45;96272.25;4102577;34;20027;-89
2022/06/13 04:04:55;;;;;;;;;;;19.80;72.20;;;19.07;67.39;96271.47;4102593;34;20149;-90
2022/06/13 04:07:28;;;;;;;;;;;19.80;72.20;;;19.07;67.06;96273.41;4102531;34;20063;-90
2022/06/13 04:10:00;;;;;;;;;;;19.80;72.20;;;19.05;67.25;96259.88;4102122;34;19904;-90
2022/06/13 04:12:51;;;;;;;;;;;19.80;72.20;;;19.07;67.21;96262.31;4080247;34;20155;-90
2022/06/13 04:15:40;;;;;;;;;;;19.80;72.20;;;19.08;67.25;96261.16;4079597;34;20131;-89
2022/06/13 04:18:13;;;;;;;;;;;19.80;72.20;;;19.08;67.22;96252.84;4124626;34;19911;-90
2022/06/13 04:20:53;;;;;;;;;;;19.80;72.20;;;19.06;67.38;96249.56;4101763;34;20216;-90
2022/06/13 04:23:28;;;;;;;;;;;19.80;72.10;;;19.09;67.25;96257.25;4102114;34;19979;-90
2022/06/13 04:26:02;;;;;;;;;;;19.80;72.20;;;19.09;67.15;96257.25;4102119;34;20144;-90
2022/06/13 04:28:39;;;;;;;;;;;19.80;72.10;;;19.07;67.02;96249.25;4080305;34;19908;-89
2022/06/13 04:31:08;;;;;;;;;;;19.80;72.10;;;19.10;66.83;96247.78;4101874;34;19941;-90
2022/06/13 04:33:39;;;;;;;;;;;19.80;72.00;;;19.10;67.26;96253.34;4102128;34;19904;-90
2022/06/13 04:36:11;;;;;;;;;;;19.80;72.10;;;19.10;67.01;96248.63;4080057;34;20189;-90
2022/06/13 04:38:43;;;;;;;;;;;19.80;72.00;;;19.11;66.97;96249.44;4102198;34;20397;-90
2022/06/13 04:41:12;;;;;;;;;;;19.80;72.00;;;19.09;66.92;96246.16;4079549;34;20089;-89
2022/06/13 04:43:48;;;;;;;;;;;19.80;72.00;;;19.10;67.01;96253.34;4102041;34;20268;-90
2022/06/13 04:46:19;;;;;;;;;;;19.80;72.00;;;19.10;67.13;96248.63;4079455;34;20136;-89
2022/06/13 04:48:51;;;;;;;;;;;19.80;72.00;;;19.13;67.33;96258.25;4080043;34;20069;-89
2022/06/13 04:51:21;;;;;;;;;;;19.80;72.00;;;19.12;67.07;96253.84;4101718;34;19915;-90
2022/06/13 04:53:56;;;;;;;;;;;19.80;72.00;;;19.14;66.89;96254.34;4079682;34;19922;-89
2022/06/13 04:56:25;;;;;;;;;;;19.80;72.00;;;19.13;67.13;96247.16;4079798;34;19904;-90
2022/06/13 04:58:54;;;;;;;;;;;19.80;71.90;;;19.15;66.96;96250.41;4079923;34;20150;-89
2022/06/13 05:01:24;;;;;;;;;;;19.80;71.80;;;19.14;67.03;96241.25;4079194;34;20225;-90
2022/06/13 05:03:54;;;;;;;;;;;19.80;71.80;;;19.17;66.73;96248.09;4101908;34;19908;-90
2022/06/13 05:06:27;;;;;;;;;;;19.80;71.80;;;19.17;66.76;96248.09;4079587;34;19904;-90
2022/06/13 05:09:00;;;;;;;;;;;19.80;71.80;;;19.19;67.11;96248.59;4079706;34;19904;-89
2022/06/13 05:11:32;;;;;;;;;;;19.90;71.80;;;19.21;66.95;96251.06;4079255;34;20076;-90
2022/06/13 05:14:04;;;;;;;;;;;19.90;71.80;;;19.23;66.96;96252.38;4101729;34;19904;-90
2022/06/13 05:16:51;;;;;;;;;;;19.90;71.80;;;19.25;67.08;96254.81;4079720;34;19904;-90
2022/06/13 05:19:36;;;;;;;;;;;19.90;71.80;;;19.26;66.93;96245.34;4101849;34;20166;-90
2022/06/13 05:22:14;;;;;;;;;;;20.00;71.90;;;19.25;67.18;96239.00;4079301;34;20169;-90
2022/06/13 05:25:03;;;;;;;;;;;20.00;72.10;;;19.28;67.32;96238.34;4101896;34;20151;-91
2022/06/13 05:27:32;;;;;;;;;;;20.00;72.30;;;19.27;67.32;96230.31;4101353;34;19904;-90
2022/06/13 05:30:00;;;;;;;;;;;20.00;72.20;;;19.30;67.08;96241.59;4079189;34;19912;-90
2022/06/13 05:32:29;;;;;;;;;;;20.00;72.10;;;19.30;67.16;96232.47;4079614;34;20026;-90
2022/06/13 05:35:01;;;;;;;;;;;20.00;72.00;;;19.29;67.36;96228.88;4101709;34;20019;-90
2022/06/13 05:37:30;;;;;;;;;;;20.00;72.10;;;19.29;67.25;96234.44;4079530;34;20308;-91
2022/06/13 05:40:00;;;;;;;;;;;20.00;72.20;;;19.31;67.68;96229.34;4079137;34;19904;-90
2022/06/13 05:42:29;;;;;;;;;;;20.00;72.30;;;19.32;67.57;96236.53;4101476;34;19968;-89
2022/06/13 05:44:57;;;;;;;;;;;20.00;72.30;;;19.34;67.70;96236.22;4079549;34;19956;-91
2022/06/13 05:47:26;;;;;;;;;;;20.00;72.30;;;19.34;67.29;96239.00;4101712;34;20135;-90
2022/06/13 05:49:55;;;;;;;;;;;20.00;72.30;;;19.38;67.12;96239.16;4079061;34;19912;-90
2022/06/13 05:52:23;;;;;;;;;;;20.10;72.30;;;19.40;67.35;96234.09;4079308;34;20135;-90
2022/06/13 05:54:52;;;;;;;;;;;20.10;72.20;;;19.40;67.35;96234.09;4079320;34;19958;-90
2022/06/13 05:57:22;;;;;;;;;;;20.10;72.20;;;19.40;67.32;96234.91;4079330;34;19911;-90
2022/06/13 05:59:51;;;;;;;;;;;20.10;72.00;;;19.44;67.23;96235.88;4101113;34;19913;-90
2022/06/13 06:02:19;;;;;;;;;;;20.20;72.00;;;19.44;67.21;96224.78;4079545;34;19904;-89
2022/06/13 06:04:48;;;;;;;;;;;20.20;72.00;;;19.49;67.14;96226.56;4079245;34;20023;-89
2022/06/13 06:07:16;;;;;;;;;;;20.20;71.80;;;19.50;67.10;96228.19;4101233;34;19912;-89
2022/06/13 06:09:45;;;;;;;;;;;20.20;71.80;;;19.56;67.19;96237.19;4079277;34;19904;-89
2022/06/13 06:12:14;;;;;;;;;;;20.30;71.80;;;19.59;66.61;96219.88;4078713;34;20243;-89
2022/06/13 06:14:44;;;;;;;;;;;20.30;72.40;;;19.61;66.56;96218.38;4101295;34;20161;-89
2022/06/13 06:17:13;;;;;;;;;;;20.30;71.40;;;19.63;66.46;96215.25;4101406;34;19908;-90
2022/06/13 06:19:42;;;;;;;;;;;20.30;71.30;;;19.67;66.17;96215.44;4079289;34;20028;-89
2022/06/13 06:22:10;;;;;;;;;;;20.40;71.20;;;19.69;66.39;96213.13;4078849;34;20102;-89
2022/06/13 06:24:39;;;;;;;;;;;20.40;71.30;;;19.70;66.62;96212.00;4079072;34;19911;-89
2022/06/13 06:27:09;;;;;;;;;;;20.40;71.20;;;19.70;66.41;96214.75;4078962;34;20135;-89
2022/06/13 06:29:38;;;;;;;;;;;20.40;71.10;;;19.71;66.32;96205.28;4100991;34;20474;-89
2022/06/13 06:32:08;;;;;;;;;;;20.50;71.20;;;19.73;66.20;96214.13;4078486;34;20073;-89
2022/06/13 06:34:37;;;;;;;;;;;20.50;71.20;;;19.74;66.23;96215.75;4100807;34;19912;-89
2022/06/13 06:37:06;;;;;;;;;;;20.50;71.20;;;19.75;66.61;96212.63;4078754;34;20142;-89
2022/06/13 06:39:34;;;;;;;;;;;20.40;71.10;;;19.77;66.46;96202.00;4080308;34;19911;-89
2022/06/13 06:42:04;;;;;;;;;;;20.40;71.00;;;19.80;66.26;96211.66;4080501;34;19911;-88
2022/06/13 06:44:32;;;;;;;;;;;20.40;70.90;;;19.82;66.19;96211.31;4080921;34;20223;-89
2022/06/13 06:47:01;;;;;;;;;;;20.50;71.00;;;19.84;66.24;96207.06;4081027;34;20120;-89
2022/06/13 06:49:34;;;;;;;;;;;20.50;70.80;;;19.86;66.12;96213.13;4080687;34;19904;-89
2022/06/13 06:52:03;;;;;;;;;;;20.50;70.70;;;19.90;66.00;96207.72;4080306;34;20167;-89
2022/06/13 07:00:08;;;;;;;;;;;20.60;70.50;;;19.95;65.80;96203.94;4079865;34;20109;-89
2022/06/13 07:02:40;;;;;;;;;;;20.60;70.50;;;19.99;65.58;96202.97;4102888;34;20180;-89
2022/06/13 07:05:11;;;;;;;;;;;20.70;70.60;;;20.01;65.76;96203.44;4080760;34;19904;-88
2022/06/13 07:07:41;;;;;;;;;;;20.70;70.50;;;20.03;65.54;96200.34;4080276;34;19904;-89
2022/06/13 07:10:11;;;;;;;;;;;20.70;70.40;;;20.03;65.63;96189.22;4102295;34;20235;-89
2022/06/13 07:12:40;;;;;;;;;;;20.80;70.40;;;20.06;65.43;96194.13;4080749;34;19986;-88
2022/06/13 07:15:10;;;;;;;;;;;20.70;70.30;;;20.06;65.37;96191.34;4102481;34;20124;-89
2022/06/13 07:17:40;;;;;;;;;;;20.80;70.20;;;20.10;65.21;96195.06;4102589;34;20248;-88
2022/06/13 07:20:11;;;;;;;;;;;20.80;70.20;;;20.11;65.60;96185.59;4080359;34;20188;-88
2022/06/13 07:22:46;;;;;;;;;;;20.80;70.20;;;20.12;65.43;96186.41;4102391;34;19904;-88
2022/06/13 07:25:15;;;;;;;;;;;20.80;70.20;;;20.14;65.60;96190.50;4080025;34;20071;-88
2022/06/13 07:27:44;;;;;;;;;;;20.80;70.10;;;20.14;65.14;96184.94;4102432;34;20031;-88
2022/06/13 07:30:48;;;;;;;;;;;20.80;70.10;;;20.16;65.49;96188.19;4079947;34;20234;-89
2022/06/13 07:33:22;;;;;;;;;;;20.80;70.10;;;20.17;65.41;96191.78;4079996;34;19911;-90
2022/06/13 07:35:55;;;;;;;;;;;20.80;70.90;;;20.18;65.48;96183.13;4080099;34;19904;-88
2022/06/13 07:38:24;;;;;;;;;;;20.80;70.00;;;20.17;65.55;96177.88;4080071;34;19904;-88
2022/06/13 07:40:55;;;;;;;;;;;20.90;70.20;;;20.20;65.29;96189.13;4079442;34;20488;-89
2022/06/13 07:43:31;;;;;;;;;;;20.90;70.20;;;20.21;64.78;96190.78;4101947;34;19904;-89
2022/06/13 07:46:02;;;;;;;;;;;20.90;70.10;;;20.22;65.41;96186.03;4125205;34;19904;-89
2022/06/13 07:48:31;;;;;;;;;;;20.90;70.00;;;20.23;65.68;96182.91;4079849;34;20213;-89
2022/06/13 07:51:02;;;;;;;;;;;20.90;70.10;;;20.24;65.53;96184.56;4079363;34;19911;-89
2022/06/13 07:53:31;;;;;;;;;;;20.90;70.10;;;20.24;65.42;96179.00;4101684;34;20212;-88
2022/06/13 07:55:59;;;;;;;;;;;20.90;70.00;;;20.26;65.28;96177.84;4079843;34;20005;-89
2022/06/13 07:58:32;;;;;;;;;;;20.90;70.00;;;20.26;65.37;96181.47;4101813;34;19904;-88
2022/06/13 08:01:01;;;;;;;;;;;21.00;70.00;;;20.27;65.12;96176.69;4079392;34;19904;-87
2022/06/13 08:03:31;;;;;;;;;;;21.00;70.00;;;20.26;65.19;96175.06;4079581;34;20224;-86
2022/06/13 08:06:01;;;;;;;;;;;21.00;69.90;;;20.28;65.34;96178.34;4101400;34;19904;-86
2022/06/13 08:08:30;;;;;;;;;;;21.00;70.00;;;20.28;65.38;96170.00;4101535;34;19904;-86
2022/06/13 08:11:02;;;;;;;;;;;21.00;70.00;;;20.26;65.50;96169.50;4101066;34;19914;-86
2022/06/13 08:13:32;;;;;;;;;;;21.00;70.00;;;20.27;65.43;96171.16;4079442;34;19975;-87
2022/06/13 08:16:05;;;;;;;;;;;21.00;70.00;;;20.27;65.35;96165.59;4079140;34;20169;-85
2022/06/13 08:18:36;;;;;;;;;;;21.00;70.00;;;20.26;65.38;96170.34;4079366;34;19911;-87
2022/06/13 08:21:09;;;;;;;;;;;21.00;70.00;;;20.26;65.40;96175.91;4079066;34;19904;-88
2022/06/13 08:23:38;;;;;;;;;;;21.00;70.00;;;20.24;65.55;96167.88;4079099;34;19904;-86
2022/06/13 08:26:08;;;;;;;;;;;21.00;70.10;;;20.23;65.62;96166.25;4079117;34;19908;-87
2022/06/13 08:28:40;;;;;;;;;;;21.00;70.10;;;20.21;65.58;96167.75;4079171;34;19911;-87
2022/06/13 08:31:15;;;;;;;;;;;20.90;70.10;;;20.20;65.50;96166.91;4078836;34;20380;-88
2022/06/13 08:33:44;;;;;;;;;;;20.90;70.30;;;20.19;65.64;96161.69;4078977;34;19905;-88
2022/06/13 08:36:14;;;;;;;;;;;20.90;70.30;;;20.19;65.68;96159.75;4100926;34;20012;-86
2022/06/13 08:38:43;;;;;;;;;;;20.90;70.30;;;20.17;65.74;96161.22;4079183;34;19904;-86
2022/06/13 08:41:23;;;;;;;;;;;20.90;70.40;;;20.16;65.89;96165.13;4100782;34;20176;-87
2022/06/13 08:44:23;;;;;;;;;;;20.90;70.40;;;20.14;65.75;96162.69;4079218;34;19911;-87
2022/06/13 08:47:02;;;;;;;;;;;20.90;70.40;;;20.15;65.66;96158.78;4074540;34;20130;-88
2022/06/13 08:49:38;;;;;;;;;;;20.90;70.50;;;20.16;65.71;96162.34;4078894;34;19904;-87
2022/06/13 08:52:18;;;;;;;;;;;20.90;70.50;;;20.13;65.82;96155.50;4078555;34;19911;-87
2022/06/13 08:54:51;;;;;;;;;;;20.90;70.50;;;20.13;65.88;96152.72;4078778;34;20032;-87
2022/06/13 08:57:19;;;;;;;;;;;20.90;70.50;;;20.15;65.94;96157.94;4101083;34;19904;-87
2022/06/13 08:59:50;;;;;;;;;;;20.90;70.60;;;20.15;65.82;96161.56;4078890;34;20154;-87
2022/06/13 09:02:21;;;;;;;;;;;20.90;70.70;;;20.14;65.77;96162.69;4100496;34;20228;-87
2022/06/13 09:04:53;;;;;;;;;;;20.90;70.70;;;20.13;66.08;96161.06;4078854;34;19904;-87
2022/06/13 09:07:27;;;;;;;;;;;20.90;70.70;;;20.15;65.82;96156.00;4100767;34;19908;-88
2022/06/13 09:09:59;;;;;;;;;;;20.90;70.70;;;20.15;65.86;96156.00;4100457;34;20005;-87
2022/06/13 09:12:32;;;;;;;;;;;20.90;70.70;;;20.15;66.25;96158.78;4079006;34;19904;-87
2022/06/13 09:15:03;;;;;;;;;;;20.90;70.70;;;20.15;66.18;96155.16;4100718;34;20041;-87
2022/06/13 09:17:40;;;;;;;;;;;20.90;70.70;;;20.14;65.99;96157.13;4100745;34;19904;-87
2022/06/13 09:20:12;;;;;;;;;;;20.90;70.80;;;20.15;66.17;96157.94;4100239;34;19919;-88
2022/06/13 09:22:45;;;;;;;;;;;20.90;70.80;;;20.14;66.07;96154.34;4100841;34;20155;-88
2022/06/13 09:25:20;;;;;;;;;;;20.80;70.70;;;20.13;66.04;96154.72;4078527;34;19911;-88
2022/06/13 09:27:55;;;;;;;;;;;20.80;70.70;;;20.15;66.22;96157.94;4100796;34;20107;-87
2022/06/13 09:30:26;;;;;;;;;;;20.80;70.70;;;20.14;65.86;96148.00;4123362;34;20143;-87
2022/06/13 09:32:57;;;;;;;;;;;20.80;70.70;;;20.12;66.02;96145.53;4123996;34;20018;-87
2022/06/13 09:35:29;;;;;;;;;;;20.80;70.70;;;20.14;66.02;96145.22;4078527;34;19904;-87
2022/06/13 09:38:05;;;;;;;;;;;20.80;70.70;;;20.12;66.18;96148.31;4100573;34;20255;-87
2022/06/13 09:40:40;;;;;;;;;;;20.80;70.70;;;20.13;66.25;96143.59;4077863;34;20367;-86
2022/06/13 09:43:19;;;;;;;;;;;20.80;70.80;;;20.13;66.05;96147.16;4078540;34;19908;-86
2022/06/13 09:45:56;;;;;;;;;;;20.80;70.80;;;20.13;66.16;96138.84;4100537;34;19904;-86
2022/06/13 09:48:41;;;;;;;;;;;20.80;70.80;;;20.13;66.25;96138.03;4100618;34;19961;-87
2022/06/13 09:51:23;;;;;;;;;;;20.80;70.90;;;20.12;66.05;96142.75;4051996;34;20005;-87
2022/06/13 09:54:01;;;;;;;;;;;20.80;70.90;;;20.12;66.26;96137.19;4052277;34;19905;-88
2022/06/13 09:56:33;;;;;;;;;;;20.80;70.90;;;20.12;66.33;96141.97;4051969;34;19904;-87
2022/06/13 09:59:11;;;;;;;;;;;20.80;70.90;;;20.11;66.09;96135.56;4052329;34;19912;-87
2022/06/13 10:01:44;;;;;;;;;;;20.80;71.00;;;20.11;66.40;96135.56;4051758;34;20275;-87
2022/06/13 10:04:16;;;;;;;;;;;20.80;70.90;;;20.12;66.36;96136.41;4052311;34;19904;-87
2022/06/13 10:06:47;;;;;;;;;;;20.80;71.00;;;20.11;66.06;96138.34;4073805;34;19904;-87
2022/06/13 10:09:27;;;;;;;;;;;20.80;71.00;;;20.08;66.38;96131.50;4052140;34;20485;-88
2022/06/13 10:12:03;;;;;;;;;;;20.80;71.00;;;20.11;66.12;96137.53;4073435;34;19912;-88
2022/06/13 10:14:57;;;;;;;;;;;20.80;71.00;;;20.07;66.34;96123.50;4081592;34;19904;-88
2022/06/13 10:17:49;;;;;;;;;;;20.80;71.00;;;20.09;66.39;96115.63;4102704;34;19911;-87
2022/06/13 10:20:22;;;;;;;;;;;20.80;71.00;;;20.08;66.57;96112.06;4102372;34;19911;-88
2022/06/13 10:22:58;;;;;;;;;;;20.80;71.20;;;20.07;66.22;96106.84;4102887;34;20147;-88
2022/06/13 10:25:52;;;;;;;;;;;20.80;71.20;;;20.08;66.50;96105.66;4102668;34;20334;-87
2022/06/13 10:28:40;;;;;;;;;;;20.80;71.20;;;20.08;66.50;96100.09;4102705;34;20005;-88
2022/06/13 10:31:15;;;;;;;;;;;20.80;71.30;;;20.06;66.60;96105.22;4080113;34;19904;-87
2022/06/13 10:33:53;;;;;;;;;;;20.80;71.30;;;20.08;66.41;96098.16;4125847;34;20145;-88
2022/06/13 10:36:25;;;;;;;;;;;20.80;71.30;;;20.06;66.42;96091.31;4102598;34;19981;-88
2022/06/13 10:38:58;;;;;;;;;;;20.80;71.20;;;20.06;66.60;96086.56;4080438;34;19912;-88
2022/06/13 10:41:29;;;;;;;;;;;20.80;71.20;;;20.06;66.50;96086.56;4079910;34;20055;-87
2022/06/13 10:43:58;;;;;;;;;;;20.80;71.30;;;20.04;66.63;96077.72;4101898;34;19911;-87
2022/06/13 10:46:27;;;;;;;;;;;20.80;71.30;;;20.06;66.44;96078.22;4101601;34;19911;-88
2022/06/13 10:48:58;;;;;;;;;;;20.80;71.30;;;20.06;66.36;96078.22;4101877;34;20042;-87
2022/06/13 10:51:27;;;;;;;;;;;20.80;71.30;;;20.06;66.67;96077.41;4101208;34;19960;-87
2022/06/13 10:54:02;;;;;;;;;;;20.70;71.30;;;20.06;66.76;96074.63;4079565;34;19904;-88
2022/06/13 10:56:36;;;;;;;;;;;20.80;71.30;;;20.03;66.58;96058.63;4079522;34;20002;-88
2022/06/13 10:59:05;;;;;;;;;;;20.80;71.30;;;20.05;66.64;96070.22;4079784;34;19912;-88
2022/06/13 11:01:33;;;;;;;;;;;20.80;71.40;;;20.05;66.49;96070.22;4079081;34;19912;-88
2022/06/13 11:04:05;;;;;;;;;;;20.80;71.30;;;20.06;66.79;96063.53;4101656;34;19923;-87
2022/06/13 11:06:38;;;;;;;;;;;20.80;71.40;;;20.06;66.88;96066.31;4101440;34;20004;-88
2022/06/13 11:09:21;;;;;;;;;;;20.80;71.30;;;20.06;66.60;96060.75;4101555;34;19904;-89
2022/06/13 11:11:56;;;;;;;;;;;20.80;71.40;;;20.06;66.48;96066.31;4101095;34;19905;-88
2022/06/13 11:14:35;;;;;;;;;;;20.80;71.40;;;20.06;66.66;96063.53;4079431;34;19911;-88
2022/06/13 11:23:03;;;;;;;;;;;20.80;71.40;;;20.08;66.68;96041.75;4101432;34;19904;-88
2022/06/13 11:25:33;;;;;;;;;;;20.80;71.40;;;20.05;66.75;96032.13;4101076;34;20551;-87
2022/06/13 11:28:09;;;;;;;;;;;20.80;71.40;;;20.08;66.74;96042.56;4079322;34;20169;-88
2022/06/13 11:31:26;;;;;;;;;;;20.80;71.40;;;20.07;66.61;96040.16;4081788;34;20066;-88
2022/06/13 11:34:22;;;;;;;;;;;20.80;71.50;;;20.09;66.73;96035.03;4101429;34;19911;-88
2022/06/13 11:36:58;;;;;;;;;;;20.80;71.50;;;20.08;66.56;96031.47;4100982;34;20153;-87
2022/06/13 11:39:39;;;;;;;;;;;20.80;71.40;;;20.06;66.53;96021.84;4079591;34;20017;-88
2022/06/13 11:42:17;;;;;;;;;;;20.80;71.40;;;20.07;66.89;96018.72;3905112;34;6148218;-89
2022/06/13 11:44:54;;;;;;;;;;;20.70;71.50;;;20.07;66.67;96013.16;4079993;34;20092;-87
2022/06/13 11:47:22;;;;;;;;;;;20.80;71.50;;;20.06;66.75;96007.94;4079642;34;19904;-89
2022/06/13 11:49:55;;;;;;;;;;;20.80;71.50;;;20.07;66.85;96001.25;4101605;34;19904;-89
2022/06/13 11:55:28;;;;;;;;;;;20.80;71.50;;;20.08;66.68;96005.63;4101652;34;19926;-89
2022/06/13 11:57:58;;;;;;;;;;;20.80;71.50;;;20.07;66.77;96004.81;4079175;34;20160;-88
2022/06/13 12:00:37;;;;;;;;;;;20.80;71.50;;;20.07;66.55;95995.69;4101152;34;20430;-88
2022/06/13 12:03:16;;;;;;;;;;;20.80;71.50;;;20.08;66.85;96000.06;4079421;34;20036;-89